Reed Station, Pennsylvania
Current Conditions -  °F | °C
As of 10:53 AM on Monday 24 Nov 2014 (Local Time) from KSEG Reporting Station
Clear Clear  
Wind Chill: 67°   Ceiling: Unl
Heat Index: 67°   Visibility: 10mi
Dew Point: 55°   Wind: 12mph
Humidity: 66%   Direction: 200°SSW
Pressure: 29.56"   Gusts: 20mph
Location:  40.8354°N, 76.6402°W
Report Text: KSEG 241553Z AUTO 20010G17KT 10SM CLR 19/13 A2956 RMK AO2 SLP008 T01940128
Loading
Personal Weather Stations






























Interactive Weather Map New forecast layout! Learn more

10-Day Weather Forecast

Advertisements
Track Severe Weather on mobile